createdAt,value
2023-05-17T00:00:07.041Z,65.44
2023-05-17T00:03:19.388Z,65.53
2023-05-17T00:07:04.217Z,65.64
2023-05-17T00:10:55.760Z,65.67
2023-05-17T00:14:18.108Z,65.81
2023-05-17T00:17:57.448Z,65.87
2023-05-17T00:21:47.142Z,65.98
2023-05-17T00:25:31.004Z,66.06
2023-05-17T00:29:20.471Z,66.02
2023-05-17T00:33:22.064Z,66.08
2023-05-17T00:37:14.493Z,66.11
2023-05-17T00:40:58.340Z,66.14
2023-05-17T00:44:57.021Z,66.14
2023-05-17T00:48:39.322Z,66.17
2023-05-17T00:52:48.998Z,66.24
2023-05-17T00:56:56.839Z,66.30
2023-05-17T01:00:58.187Z,66.39
2023-05-17T01:04:27.268Z,66.40
2023-05-17T01:07:59.655Z,66.46
2023-05-17T01:11:49.659Z,66.52
2023-05-17T01:15:56.905Z,66.51
2023-05-17T01:19:27.334Z,66.58
2023-05-17T01:22:56.971Z,66.59
2023-05-17T01:26:36.826Z,66.55
2023-05-17T01:30:46.552Z,66.63
2023-05-17T01:34:38.895Z,66.69
2023-05-17T01:37:39.935Z,66.74
2023-05-17T01:41:49.002Z,66.73
2023-05-17T01:45:05.088Z,66.73
2023-05-17T01:49:01.186Z,66.76
2023-05-17T01:52:14.216Z,66.78
2023-05-17T01:56:17.899Z,66.70
2023-05-17T02:00:27.546Z,66.69
2023-05-17T02:03:32.148Z,66.59
2023-05-17T02:06:23.479Z,66.45
2023-05-17T02:09:02.759Z,66.38
2023-05-17T02:11:56.009Z,66.35
2023-05-17T02:15:34.234Z,66.30
2023-05-17T02:19:03.339Z,66.29
2023-05-17T02:22:19.417Z,66.26
2023-05-17T02:25:13.983Z,66.08
2023-05-17T02:28:41.891Z,65.84
2023-05-17T02:31:51.298Z,65.71
2023-05-17T02:35:03.233Z,65.28
2023-05-17T02:37:46.625Z,64.72
2023-05-17T02:41:48.477Z,64.55
2023-05-17T02:44:58.025Z,64.03
2023-05-17T02:48:22.261Z,63.40
2023-05-17T02:52:02.537Z,63.06
2023-05-17T02:55:31.441Z,62.57
2023-05-17T02:58:35.512Z,62.37
2023-05-17T03:01:15.811Z,62.15
2023-05-17T03:04:35.284Z,61.84
2023-05-17T03:07:42.778Z,61.76
2023-05-17T03:11:12.132Z,61.57
2023-05-17T03:14:41.935Z,61.65
2023-05-17T03:17:39.678Z,61.47
2023-05-17T03:20:54.204Z,61.49
2023-05-17T03:23:48.705Z,61.45
2023-05-17T03:26:56.783Z,61.34
2023-05-17T03:30:16.062Z,61.36
2023-05-17T03:33:22.133Z,61.45
2023-05-17T03:36:13.682Z,61.46
2023-05-17T03:39:15.171Z,61.52
2023-05-17T03:41:51.731Z,61.48
2023-05-17T03:45:06.979Z,61.55
2023-05-17T03:48:16.253Z,61.61
2023-05-17T03:51:37.918Z,61.68
2023-05-17T03:54:10.455Z,61.60
2023-05-17T03:57:22.736Z,61.63
2023-05-17T04:00:06.551Z,61.55
2023-05-17T04:03:37.698Z,61.55
2023-05-17T04:06:21.617Z,61.58
2023-05-17T04:09:01.175Z,61.60
2023-05-17T04:12:09.977Z,61.65
2023-05-17T04:15:02.524Z,61.74
2023-05-17T04:17:55.873Z,61.84
2023-05-17T04:20:35.090Z,61.98
2023-05-17T04:23:06.739Z,62.08
2023-05-17T04:26:00.057Z,62.09
2023-05-17T04:29:06.990Z,62.26
2023-05-17T04:31:55.829Z,62.33
2023-05-17T04:35:00.595Z,62.40
2023-05-17T04:38:05.952Z,62.50
2023-05-17T04:40:55.332Z,62.65
2023-05-17T04:44:04.548Z,62.74
2023-05-17T04:46:44.204Z,62.93
2023-05-17T04:49:28.794Z,63.11
2023-05-17T04:52:12.165Z,63.21
2023-05-17T04:55:05.400Z,63.38
2023-05-17T04:58:30.727Z,63.49
2023-05-17T05:01:52.905Z,63.70
2023-05-17T05:05:05.142Z,63.78
2023-05-17T05:09:08.951Z,63.83
2023-05-17T05:13:08.568Z,63.91
2023-05-17T05:16:56.680Z,63.97
2023-05-17T05:20:08.865Z,63.94
2023-05-17T05:23:43.745Z,64.00
2023-05-17T05:27:24.624Z,64.12
2023-05-17T05:30:36.340Z,64.12
2023-05-17T05:33:59.180Z,64.14
2023-05-17T05:38:07.415Z,64.09
2023-05-17T05:41:09.684Z,63.94
2023-05-17T05:45:10.540Z,63.88
2023-05-17T05:48:09.102Z,63.74
2023-05-17T05:51:31.878Z,63.45
2023-05-17T05:55:29.608Z,63.34
2023-05-17T05:59:10.151Z,63.19
2023-05-17T06:02:19.615Z,62.77
2023-05-17T06:05:43.346Z,62.07
2023-05-17T06:09:05.974Z,61.18
2023-05-17T06:12:26.240Z,61.08
2023-05-17T06:16:28.333Z,59.72
2023-05-17T06:19:46.285Z,58.30
2023-05-17T06:23:08.234Z,57.87
2023-05-17T06:26:28.061Z,57.89
2023-05-17T06:30:15.107Z,58.58
2023-05-17T06:33:46.590Z,57.81
2023-05-17T06:37:34.746Z,57.02
2023-05-17T06:41:15.569Z,57.49
2023-05-17T06:44:21.134Z,58.08
2023-05-17T06:47:35.904Z,58.30
2023-05-17T06:50:47.363Z,57.89
2023-05-17T06:53:36.287Z,57.81
2023-05-17T06:57:19.576Z,57.68
2023-05-17T07:00:28.724Z,57.82
2023-05-17T07:03:53.678Z,58.00
2023-05-17T07:06:42.822Z,57.94
2023-05-17T07:10:12.269Z,58.26
2023-05-17T07:13:26.520Z,57.97
2023-05-17T07:17:20.207Z,57.97
2023-05-17T07:21:02.582Z,57.58
2023-05-17T07:24:11.630Z,57.44
2023-05-17T07:27:44.298Z,57.55
2023-05-17T07:31:07.627Z,57.59
2023-05-17T07:34:58.180Z,57.67
2023-05-17T07:38:10.673Z,58.41
2023-05-17T07:41:28.575Z,58.56
2023-05-17T07:45:05.975Z,58.83
2023-05-17T07:48:58.068Z,58.93
2023-05-17T07:51:56.475Z,59.02
2023-05-17T07:55:07.762Z,59.20
2023-05-17T07:58:53.109Z,59.22
2023-05-17T08:02:25.233Z,59.13
2023-05-17T08:05:19.939Z,59.01
2023-05-17T08:07:48.251Z,59.22
2023-05-17T08:10:39.560Z,59.20
2023-05-17T08:13:10.616Z,59.04
2023-05-17T08:15:47.993Z,58.90
2023-05-17T08:18:58.389Z,58.81
2023-05-17T08:21:43.834Z,59.02
2023-05-17T08:24:41.908Z,59.36
2023-05-17T08:27:55.951Z,59.46
2023-05-17T08:30:49.472Z,59.69
2023-05-17T08:34:31.408Z,59.74
2023-05-17T08:37:23.580Z,59.75
2023-05-17T08:40:25.167Z,60.03
2023-05-17T08:43:14.805Z,60.11
2023-05-17T08:47:00.497Z,60.03
2023-05-17T08:50:50.359Z,59.96
2023-05-17T08:54:22.826Z,59.91
2023-05-17T08:57:28.790Z,60.37
2023-05-17T09:00:46.167Z,60.36
2023-05-17T09:04:18.331Z,60.21
2023-05-17T09:07:52.437Z,60.29
2023-05-17T09:11:20.737Z,60.32
2023-05-17T09:14:54.824Z,59.68
2023-05-17T09:18:27.993Z,59.31
2023-05-17T09:21:41.252Z,59.49
2023-05-17T09:25:10.663Z,59.55
2023-05-17T09:28:23.038Z,58.69
2023-05-17T09:32:01.367Z,57.13
2023-05-17T09:35:08.638Z,56.20
2023-05-17T09:39:18.068Z,55.60
2023-05-17T09:42:22.849Z,55.73
2023-05-17T09:45:47.702Z,54.51
2023-05-17T09:49:16.956Z,54.27
2023-05-17T09:52:44.053Z,54.60
2023-05-17T09:56:20.690Z,52.80
2023-05-17T09:59:52.872Z,51.78
2023-05-17T10:03:51.049Z,50.18
2023-05-17T10:09:48.989Z,51.50
2023-05-17T10:12:41.005Z,51.58
2023-05-17T10:15:43.487Z,50.78
2023-05-17T10:19:21.810Z,50.40
2023-05-17T10:23:18.653Z,50.39
2023-05-17T10:26:45.289Z,49.66
2023-05-17T10:30:20.181Z,50.10
2023-05-17T10:33:15.304Z,49.85
2023-05-17T10:36:38.781Z,51.17
2023-05-17T10:40:17.984Z,50.23
2023-05-17T10:43:36.733Z,48.99
2023-05-17T10:47:04.452Z,49.06
2023-05-17T10:50:54.398Z,49.14
2023-05-17T10:55:01.554Z,49.29
2023-05-17T10:59:12.197Z,49.12
2023-05-17T11:02:52.670Z,49.26
2023-05-17T11:06:38.807Z,49.09
2023-05-17T11:10:06.825Z,47.68
2023-05-17T11:13:31.741Z,48.26
2023-05-17T11:16:25.809Z,49.14
2023-05-17T11:19:38.271Z,48.68
2023-05-17T11:23:35.138Z,48.35
2023-05-17T11:27:37.549Z,49.03
2023-05-17T11:30:51.227Z,48.72
2023-05-17T11:34:30.992Z,48.11
2023-05-17T11:37:34.545Z,47.62
2023-05-17T11:40:37.906Z,47.13
2023-05-17T11:44:01.183Z,47.72
2023-05-17T11:47:33.025Z,47.67
2023-05-17T11:51:13.479Z,47.11
2023-05-17T11:54:40.615Z,47.24
2023-05-17T11:57:53.383Z,46.49
2023-05-17T12:00:48.839Z,47.48
2023-05-17T12:04:16.583Z,47.42
2023-05-17T12:08:07.904Z,47.83
2023-05-17T12:11:22.904Z,47.69
2023-05-17T12:14:43.033Z,47.56
2023-05-17T12:18:12.996Z,47.71
2023-05-17T12:21:42.531Z,47.99
2023-05-17T12:25:31.342Z,47.29
2023-05-17T12:29:01.291Z,47.08
2023-05-17T12:32:25.877Z,47.70
2023-05-17T12:35:17.842Z,47.63
2023-05-17T12:38:12.772Z,47.06
2023-05-17T12:41:03.701Z,46.74
2023-05-17T12:43:37.678Z,45.72
2023-05-17T12:46:32.529Z,45.42
2023-05-17T12:49:26.804Z,45.94
2023-05-17T12:52:26.921Z,46.36
2023-05-17T12:55:15.631Z,46.29
2023-05-17T12:58:03.344Z,46.23
2023-05-17T13:01:27.358Z,46.01
2023-05-17T13:04:43.741Z,46.32
2023-05-17T13:07:35.583Z,45.00
2023-05-17T13:10:32.686Z,45.97
2023-05-17T13:13:09.625Z,45.90
2023-05-17T13:15:59.883Z,46.01
2023-05-17T13:18:35.737Z,45.78
2023-05-17T13:21:10.213Z,45.79
2023-05-17T13:24:07.705Z,45.00
2023-05-17T13:27:14.593Z,45.59
2023-05-17T13:30:07.463Z,45.67
2023-05-17T13:32:48.424Z,45.95
2023-05-17T13:35:26.708Z,46.04
2023-05-17T13:37:55.406Z,46.10
2023-05-17T13:40:31.752Z,45.75
2023-05-17T13:43:09.957Z,45.47
2023-05-17T13:46:24.505Z,45.63
2023-05-17T13:49:04.603Z,45.55
2023-05-17T13:52:09.269Z,45.86
2023-05-17T13:54:47.071Z,45.80
2023-05-17T13:57:51.562Z,45.49
2023-05-17T14:01:35.217Z,45.60
2023-05-17T14:05:04.908Z,45.50
2023-05-17T14:08:53.966Z,45.50
2023-05-17T14:11:49.347Z,45.42
2023-05-17T14:14:17.905Z,45.39
2023-05-17T14:16:46.753Z,45.56
2023-05-17T14:19:20.703Z,45.29
2023-05-17T14:21:52.240Z,44.62
2023-05-17T14:24:23.628Z,44.52
2023-05-17T14:26:57.915Z,44.34
2023-05-17T14:29:37.965Z,44.05
2023-05-17T14:32:08.006Z,43.46
2023-05-17T14:34:39.952Z,43.85
2023-05-17T14:37:11.270Z,43.93
2023-05-17T14:39:39.693Z,44.16
2023-05-17T14:42:11.629Z,43.60
2023-05-17T14:44:53.093Z,42.99
2023-05-17T14:47:24.721Z,43.40
2023-05-17T14:50:01.300Z,42.58
2023-05-17T14:52:32.512Z,42.63
2023-05-17T14:55:01.257Z,42.72
2023-05-17T14:57:29.826Z,42.02
2023-05-17T15:00:00.373Z,41.89
2023-05-17T15:02:29.387Z,42.18
2023-05-17T15:04:58.162Z,41.68
2023-05-17T15:07:53.931Z,42.45
2023-05-17T15:10:42.390Z,42.46
2023-05-17T15:13:14.107Z,42.88
2023-05-17T15:15:46.915Z,43.09
2023-05-17T15:18:15.910Z,43.51
2023-05-17T15:20:44.866Z,43.70
2023-05-17T15:23:31.745Z,43.77
2023-05-17T15:26:00.624Z,43.77
2023-05-17T15:28:52.012Z,44.03
2023-05-17T15:31:20.707Z,44.17
2023-05-17T15:33:49.438Z,43.99
2023-05-17T15:36:20.427Z,44.25
2023-05-17T15:38:49.318Z,44.24
2023-05-17T15:41:22.757Z,44.35
2023-05-17T15:44:10.300Z,44.30
2023-05-17T15:46:48.130Z,44.32
2023-05-17T15:49:21.887Z,44.43
2023-05-17T15:51:53.024Z,44.70
2023-05-17T15:54:24.819Z,44.78
2023-05-17T15:58:01.891Z,44.96
2023-05-17T16:01:53.579Z,45.25
2023-05-17T16:05:00.475Z,45.59
2023-05-17T16:08:53.366Z,45.81
2023-05-17T16:12:12.469Z,46.03
2023-05-17T16:15:17.197Z,46.32
2023-05-17T16:18:32.895Z,46.67
2023-05-17T16:22:21.507Z,46.79
2023-05-17T16:26:31.001Z,46.87
2023-05-17T16:30:30.203Z,47.05
2023-05-17T16:34:33.607Z,46.93
2023-05-17T16:38:17.869Z,47.00
2023-05-17T16:42:26.010Z,47.01
2023-05-17T16:45:53.290Z,47.05
2023-05-17T16:49:16.353Z,47.25
2023-05-17T16:52:45.657Z,47.55
2023-05-17T16:56:12.119Z,47.63
2023-05-17T16:59:12.267Z,47.80
2023-05-17T17:13:56.466Z,48.61
2023-05-17T17:17:28.893Z,48.46
2023-05-17T17:21:37.085Z,48.48
2023-05-17T17:25:35.232Z,48.54
2023-05-17T17:29:13.449Z,48.64
2023-05-17T17:32:44.540Z,48.91
2023-05-17T17:35:41.954Z,49.11
2023-05-17T17:38:22.732Z,49.22
2023-05-17T17:41:33.508Z,49.38
2023-05-17T17:44:33.878Z,49.44
2023-05-17T17:48:04.507Z,49.54
2023-05-17T17:51:02.516Z,49.62
2023-05-17T17:54:07.907Z,49.85
2023-05-17T17:57:22.665Z,49.97
2023-05-17T18:00:58.991Z,49.97
2023-05-17T18:03:59.910Z,50.06
2023-05-17T18:07:31.073Z,50.11
2023-05-17T18:10:30.478Z,50.22
2023-05-17T18:13:43.586Z,50.36
2023-05-17T18:16:25.670Z,50.36
2023-05-17T18:19:42.714Z,50.38
2023-05-17T18:22:45.600Z,50.48
2023-05-17T18:25:28.850Z,50.56
2023-05-17T18:28:52.147Z,50.73
2023-05-17T18:32:27.856Z,50.82
2023-05-17T18:35:31.049Z,50.95
2023-05-17T18:38:17.608Z,51.27
2023-05-17T18:40:48.157Z,51.44
2023-05-17T18:43:59.484Z,51.64
2023-05-17T18:47:28.516Z,51.63
2023-05-17T18:50:12.121Z,51.77
2023-05-17T18:53:26.811Z,51.98
2023-05-17T18:56:49.652Z,52.21
2023-05-17T19:00:24.998Z,52.22
2023-05-17T19:03:24.739Z,52.47
2023-05-17T19:07:23.844Z,52.71
2023-05-17T19:11:13.961Z,52.87
2023-05-17T19:15:00.740Z,53.11
2023-05-17T19:18:11.607Z,53.36
2023-05-17T19:21:41.445Z,53.81
2023-05-17T19:25:16.838Z,53.78
2023-05-17T19:29:13.036Z,53.94
2023-05-17T19:32:29.646Z,53.99
2023-05-17T19:36:02.237Z,54.35
2023-05-17T19:39:18.993Z,54.50
2023-05-17T19:43:24.124Z,54.69
2023-05-17T19:47:17.832Z,54.87
2023-05-17T19:50:37.885Z,55.20
2023-05-17T19:53:13.662Z,55.44
2023-05-17T19:56:26.988Z,55.60
2023-05-17T19:59:44.551Z,55.79
2023-05-17T20:02:38.556Z,55.86
2023-05-17T20:06:06.670Z,56.20
2023-05-17T20:09:26.273Z,56.07
2023-05-17T20:12:15.050Z,56.52
2023-05-17T20:15:06.514Z,56.68
2023-05-17T20:17:36.908Z,56.94
2023-05-17T20:20:29.005Z,57.12
2023-05-17T20:24:25.370Z,57.16
2023-05-17T20:28:26.378Z,57.17
2023-05-17T20:31:40.132Z,57.41
2023-05-17T20:35:27.442Z,57.57
2023-05-17T20:39:15.760Z,57.74
2023-05-17T20:42:28.271Z,57.79
2023-05-17T20:45:02.980Z,58.23
2023-05-17T20:47:38.408Z,58.38
2023-05-17T20:50:40.530Z,58.64
2023-05-17T20:54:11.775Z,58.68
2023-05-17T20:57:59.350Z,58.62
2023-05-17T21:00:58.603Z,58.75
2023-05-17T21:04:12.350Z,59.07
2023-05-17T21:07:29.428Z,59.08
2023-05-17T21:10:42.251Z,59.02
2023-05-17T21:13:25.765Z,59.37
2023-05-17T21:16:47.907Z,59.32
2023-05-17T21:20:45.162Z,59.36
2023-05-17T21:23:59.347Z,59.48
2023-05-17T21:27:35.870Z,59.78
2023-05-17T21:30:07.222Z,59.70
2023-05-17T21:33:43.969Z,60.05
2023-05-17T21:37:17.735Z,59.87
2023-05-17T21:40:28.777Z,60.13
2023-05-17T21:43:21.921Z,60.10
2023-05-17T21:46:20.034Z,60.33
2023-05-17T21:48:58.240Z,60.39
2023-05-17T21:51:43.156Z,60.53
2023-05-17T21:55:36.516Z,60.64
2023-05-17T21:59:36.732Z,60.54
2023-05-17T22:03:13.944Z,60.53
2023-05-17T22:06:16.659Z,60.70
2023-05-17T22:10:14.781Z,60.74
2023-05-17T22:13:50.595Z,60.90
2023-05-17T22:17:59.077Z,60.94
2023-05-17T22:21:27.797Z,61.13
2023-05-17T22:24:55.972Z,61.18
2023-05-17T22:27:58.959Z,61.52
2023-05-17T22:31:10.628Z,61.36
2023-05-17T22:34:30.477Z,61.38
2023-05-17T22:38:16.331Z,61.49
2023-05-17T22:41:40.860Z,61.57
2023-05-17T22:45:06.127Z,61.61
2023-05-17T22:49:13.157Z,61.56
2023-05-17T22:52:07.175Z,61.66
2023-05-17T22:55:24.453Z,61.76
2023-05-17T22:59:05.973Z,61.87
2023-05-17T23:02:36.777Z,63.10
2023-05-17T23:06:01.514Z,63.90
2023-05-17T23:09:29.489Z,63.53
2023-05-17T23:13:13.117Z,63.21
2023-05-17T23:16:35.185Z,62.90
2023-05-17T23:20:35.070Z,62.56
2023-05-17T23:24:07.268Z,62.26
2023-05-17T23:27:51.510Z,61.86
2023-05-17T23:31:39.659Z,61.74
2023-05-17T23:35:33.303Z,61.46
2023-05-17T23:38:26.437Z,61.41
2023-05-17T23:41:57.691Z,61.13
2023-05-17T23:45:39.052Z,61.12
2023-05-17T23:49:15.603Z,61.07
2023-05-17T23:52:22.870Z,60.90
2023-05-17T23:55:32.892Z,60.74
2023-05-17T23:58:51.717Z,60.76
